sensor_id;sensor_type;location;lat;lon;timestamp;P1;durP1;ratioP1;P2;durP2;ratioP2
30020;SDS011;16861;52.294;7.760;2023-05-07T00:00:14;16.52;;;12.23;;
30020;SDS011;16861;52.294;7.760;2023-05-07T00:02:42;18.75;;;13.13;;
30020;SDS011;16861;52.294;7.760;2023-05-07T00:05:09;18.63;;;12.00;;
30020;SDS011;16861;52.294;7.760;2023-05-07T00:07:35;17.17;;;13.00;;
30020;SDS011;16861;52.294;7.760;2023-05-07T00:10:03;16.52;;;12.80;;
30020;SDS011;16861;52.294;7.760;2023-05-07T00:12:30;15.95;;;12.07;;
30020;SDS011;16861;52.294;7.760;2023-05-07T00:15:01;16.77;;;12.43;;
30020;SDS011;16861;52.294;7.760;2023-05-07T00:17:29;15.88;;;12.48;;
30020;SDS011;16861;52.294;7.760;2023-05-07T00:19:56;18.95;;;12.73;;
30020;SDS011;16861;52.294;7.760;2023-05-07T00:22:22;18.05;;;12.43;;
30020;SDS011;16861;52.294;7.760;2023-05-07T00:24:48;18.50;;;12.55;;
30020;SDS011;16861;52.294;7.760;2023-05-07T00:27:15;17.83;;;13.18;;
30020;SDS011;16861;52.294;7.760;2023-05-07T00:29:41;16.50;;;12.95;;
30020;SDS011;16861;52.294;7.760;2023-05-07T00:32:08;17.75;;;13.38;;
30020;SDS011;16861;52.294;7.760;2023-05-07T00:34:35;16.92;;;12.88;;
30020;SDS011;16861;52.294;7.760;2023-05-07T00:37:01;15.95;;;12.98;;
30020;SDS011;16861;52.294;7.760;2023-05-07T00:39:31;20.20;;;13.93;;
30020;SDS011;16861;52.294;7.760;2023-05-07T00:41:57;17.48;;;13.55;;
30020;SDS011;16861;52.294;7.760;2023-05-07T00:44:23;15.50;;;13.05;;
30020;SDS011;16861;52.294;7.760;2023-05-07T00:46:50;14.85;;;12.40;;
30020;SDS011;16861;52.294;7.760;2023-05-07T00:49:16;17.83;;;13.75;;
30020;SDS011;16861;52.294;7.760;2023-05-07T00:51:45;16.63;;;13.02;;
30020;SDS011;16861;52.294;7.760;2023-05-07T00:54:12;16.55;;;13.38;;
30020;SDS011;16861;52.294;7.760;2023-05-07T00:56:39;19.08;;;13.57;;
30020;SDS011;16861;52.294;7.760;2023-05-07T00:59:06;15.68;;;13.48;;
30020;SDS011;16861;52.294;7.760;2023-05-07T01:01:32;18.58;;;13.95;;
30020;SDS011;16861;52.294;7.760;2023-05-07T01:03:59;17.85;;;13.90;;
30020;SDS011;16861;52.294;7.760;2023-05-07T01:06:26;18.13;;;14.93;;
30020;SDS011;16861;52.294;7.760;2023-05-07T01:08:54;16.40;;;13.73;;
30020;SDS011;16861;52.294;7.760;2023-05-07T01:11:22;18.02;;;13.68;;
30020;SDS011;16861;52.294;7.760;2023-05-07T01:13:49;19.15;;;14.18;;
30020;SDS011;16861;52.294;7.760;2023-05-07T01:16:16;18.88;;;14.02;;
30020;SDS011;16861;52.294;7.760;2023-05-07T01:18:43;18.35;;;13.98;;
30020;SDS011;16861;52.294;7.760;2023-05-07T01:21:11;21.00;;;15.45;;
30020;SDS011;16861;52.294;7.760;2023-05-07T01:23:37;19.92;;;15.20;;
30020;SDS011;16861;52.294;7.760;2023-05-07T01:26:05;17.00;;;14.10;;
30020;SDS011;16861;52.294;7.760;2023-05-07T01:28:32;21.98;;;15.40;;
30020;SDS011;16861;52.294;7.760;2023-05-07T01:31:00;18.33;;;14.57;;
30020;SDS011;16861;52.294;7.760;2023-05-07T01:33:29;19.10;;;14.80;;
30020;SDS011;16861;52.294;7.760;2023-05-07T01:35:58;22.80;;;15.18;;
30020;SDS011;16861;52.294;7.760;2023-05-07T01:38:28;19.95;;;15.55;;
30020;SDS011;16861;52.294;7.760;2023-05-07T01:40:55;22.33;;;16.05;;
30020;SDS011;16861;52.294;7.760;2023-05-07T01:43:22;22.13;;;15.18;;
30020;SDS011;16861;52.294;7.760;2023-05-07T01:45:48;18.83;;;15.02;;
30020;SDS011;16861;52.294;7.760;2023-05-07T01:48:15;21.52;;;15.57;;
30020;SDS011;16861;52.294;7.760;2023-05-07T01:50:44;20.67;;;16.52;;
30020;SDS011;16861;52.294;7.760;2023-05-07T01:53:11;23.17;;;17.60;;
30020;SDS011;16861;52.294;7.760;2023-05-07T01:55:37;22.85;;;16.83;;
30020;SDS011;16861;52.294;7.760;2023-05-07T01:58:04;23.48;;;17.70;;
30020;SDS011;16861;52.294;7.760;2023-05-07T02:00:30;23.48;;;18.20;;
30020;SDS011;16861;52.294;7.760;2023-05-07T02:02:57;25.17;;;17.75;;
30020;SDS011;16861;52.294;7.760;2023-05-07T02:05:24;23.77;;;17.45;;
30020;SDS011;16861;52.294;7.760;2023-05-07T02:07:51;24.35;;;18.33;;
30020;SDS011;16861;52.294;7.760;2023-05-07T02:10:17;24.27;;;17.70;;
30020;SDS011;16861;52.294;7.760;2023-05-07T02:12:43;24.60;;;18.23;;
30020;SDS011;16861;52.294;7.760;2023-05-07T02:15:10;26.38;;;18.60;;
30020;SDS011;16861;52.294;7.760;2023-05-07T02:17:39;23.23;;;17.65;;
30020;SDS011;16861;52.294;7.760;2023-05-07T02:20:25;25.85;;;17.90;;
30020;SDS011;16861;52.294;7.760;2023-05-07T02:22:51;27.30;;;19.55;;
30020;SDS011;16861;52.294;7.760;2023-05-07T02:25:18;25.80;;;19.42;;
30020;SDS011;16861;52.294;7.760;2023-05-07T02:27:44;27.15;;;19.15;;
30020;SDS011;16861;52.294;7.760;2023-05-07T02:30:11;24.85;;;18.50;;
30020;SDS011;16861;52.294;7.760;2023-05-07T02:32:37;26.73;;;19.95;;
30020;SDS011;16861;52.294;7.760;2023-05-07T02:35:04;28.15;;;19.85;;
30020;SDS011;16861;52.294;7.760;2023-05-07T02:37:30;26.42;;;18.17;;
30020;SDS011;16861;52.294;7.760;2023-05-07T02:39:57;27.85;;;19.45;;
30020;SDS011;16861;52.294;7.760;2023-05-07T02:42:23;28.40;;;20.08;;
30020;SDS011;16861;52.294;7.760;2023-05-07T02:44:50;30.80;;;20.95;;
30020;SDS011;16861;52.294;7.760;2023-05-07T02:47:16;30.05;;;20.98;;
30020;SDS011;16861;52.294;7.760;2023-05-07T02:49:42;28.80;;;21.13;;
30020;SDS011;16861;52.294;7.760;2023-05-07T02:52:09;28.63;;;21.30;;
30020;SDS011;16861;52.294;7.760;2023-05-07T02:54:35;30.65;;;21.67;;
30020;SDS011;16861;52.294;7.760;2023-05-07T02:57:01;28.67;;;21.38;;
30020;SDS011;16861;52.294;7.760;2023-05-07T02:59:29;29.33;;;21.20;;
30020;SDS011;16861;52.294;7.760;2023-05-07T03:01:55;29.60;;;21.63;;
30020;SDS011;16861;52.294;7.760;2023-05-07T03:04:22;30.85;;;21.77;;
30020;SDS011;16861;52.294;7.760;2023-05-07T03:06:48;30.45;;;20.67;;
30020;SDS011;16861;52.294;7.760;2023-05-07T03:09:14;29.05;;;21.60;;
30020;SDS011;16861;52.294;7.760;2023-05-07T03:11:41;31.98;;;22.48;;
30020;SDS011;16861;52.294;7.760;2023-05-07T03:14:07;29.50;;;21.98;;
30020;SDS011;16861;52.294;7.760;2023-05-07T03:16:34;31.40;;;23.17;;
30020;SDS011;16861;52.294;7.760;2023-05-07T03:19:01;28.60;;;22.77;;
30020;SDS011;16861;52.294;7.760;2023-05-07T03:21:27;35.08;;;24.30;;
30020;SDS011;16861;52.294;7.760;2023-05-07T03:23:54;29.38;;;22.25;;
30020;SDS011;16861;52.294;7.760;2023-05-07T03:26:20;31.42;;;22.77;;
30020;SDS011;16861;52.294;7.760;2023-05-07T03:28:47;30.00;;;22.27;;
30020;SDS011;16861;52.294;7.760;2023-05-07T03:31:13;31.60;;;23.60;;
30020;SDS011;16861;52.294;7.760;2023-05-07T03:33:55;31.52;;;23.27;;
30020;SDS011;16861;52.294;7.760;2023-05-07T03:36:23;31.73;;;22.83;;
30020;SDS011;16861;52.294;7.760;2023-05-07T03:38:50;30.40;;;22.88;;
30020;SDS011;16861;52.294;7.760;2023-05-07T03:41:16;30.85;;;23.45;;
30020;SDS011;16861;52.294;7.760;2023-05-07T03:43:43;32.03;;;24.00;;
30020;SDS011;16861;52.294;7.760;2023-05-07T03:46:09;32.42;;;24.52;;
30020;SDS011;16861;52.294;7.760;2023-05-07T03:48:35;32.30;;;23.88;;
30020;SDS011;16861;52.294;7.760;2023-05-07T03:51:03;32.33;;;25.10;;
30020;SDS011;16861;52.294;7.760;2023-05-07T03:53:29;34.13;;;24.80;;
30020;SDS011;16861;52.294;7.760;2023-05-07T03:55:56;30.65;;;23.65;;
30020;SDS011;16861;52.294;7.760;2023-05-07T03:58:22;33.45;;;24.85;;
30020;SDS011;16861;52.294;7.760;2023-05-07T04:00:49;34.22;;;24.67;;
30020;SDS011;16861;52.294;7.760;2023-05-07T04:03:15;30.75;;;23.70;;
30020;SDS011;16861;52.294;7.760;2023-05-07T04:05:42;35.28;;;26.33;;
30020;SDS011;16861;52.294;7.760;2023-05-07T04:08:08;33.35;;;24.90;;
30020;SDS011;16861;52.294;7.760;2023-05-07T04:10:35;37.83;;;25.60;;
30020;SDS011;16861;52.294;7.760;2023-05-07T04:13:01;34.03;;;25.10;;
30020;SDS011;16861;52.294;7.760;2023-05-07T04:15:28;36.97;;;25.52;;
30020;SDS011;16861;52.294;7.760;2023-05-07T04:17:54;33.47;;;25.42;;
30020;SDS011;16861;52.294;7.760;2023-05-07T04:20:21;31.27;;;24.58;;
30020;SDS011;16861;52.294;7.760;2023-05-07T04:22:47;36.75;;;25.80;;
30020;SDS011;16861;52.294;7.760;2023-05-07T04:25:13;36.22;;;26.70;;
30020;SDS011;16861;52.294;7.760;2023-05-07T04:27:42;36.72;;;25.23;;
30020;SDS011;16861;52.294;7.760;2023-05-07T04:30:08;33.50;;;25.90;;
30020;SDS011;16861;52.294;7.760;2023-05-07T04:32:36;34.15;;;25.27;;
30020;SDS011;16861;52.294;7.760;2023-05-07T04:35:03;33.90;;;25.23;;
30020;SDS011;16861;52.294;7.760;2023-05-07T04:37:31;39.17;;;25.85;;
30020;SDS011;16861;52.294;7.760;2023-05-07T04:39:58;36.30;;;26.83;;
30020;SDS011;16861;52.294;7.760;2023-05-07T04:42:24;37.70;;;27.15;;
30020;SDS011;16861;52.294;7.760;2023-05-07T04:44:52;35.88;;;26.05;;
30020;SDS011;16861;52.294;7.760;2023-05-07T04:47:19;33.42;;;25.27;;
30020;SDS011;16861;52.294;7.760;2023-05-07T04:49:46;35.15;;;25.30;;
30020;SDS011;16861;52.294;7.760;2023-05-07T04:52:12;35.65;;;26.20;;
30020;SDS011;16861;52.294;7.760;2023-05-07T04:54:39;37.53;;;26.13;;
30020;SDS011;16861;52.294;7.760;2023-05-07T04:57:05;33.42;;;25.35;;
30020;SDS011;16861;52.294;7.760;2023-05-07T04:59:32;38.20;;;25.55;;
30020;SDS011;16861;52.294;7.760;2023-05-07T05:01:59;34.00;;;24.75;;
30020;SDS011;16861;52.294;7.760;2023-05-07T05:04:26;32.92;;;26.20;;
30020;SDS011;16861;52.294;7.760;2023-05-07T05:06:53;35.03;;;26.25;;
30020;SDS011;16861;52.294;7.760;2023-05-07T05:09:19;31.88;;;24.52;;
30020;SDS011;16861;52.294;7.760;2023-05-07T05:11:45;39.03;;;26.25;;
30020;SDS011;16861;52.294;7.760;2023-05-07T05:14:12;34.95;;;25.42;;
30020;SDS011;16861;52.294;7.760;2023-05-07T05:16:38;32.78;;;24.40;;
30020;SDS011;16861;52.294;7.760;2023-05-07T05:19:05;32.78;;;24.25;;
30020;SDS011;16861;52.294;7.760;2023-05-07T05:21:31;39.28;;;27.52;;
30020;SDS011;16861;52.294;7.760;2023-05-07T05:23:58;33.53;;;24.50;;
30020;SDS011;16861;52.294;7.760;2023-05-07T05:26:24;32.45;;;24.83;;
30020;SDS011;16861;52.294;7.760;2023-05-07T05:28:51;34.38;;;24.83;;
30020;SDS011;16861;52.294;7.760;2023-05-07T05:31:18;34.33;;;24.92;;
30020;SDS011;16861;52.294;7.760;2023-05-07T05:33:44;42.03;;;25.63;;
30020;SDS011;16861;52.294;7.760;2023-05-07T05:36:11;32.95;;;24.88;;
30020;SDS011;16861;52.294;7.760;2023-05-07T05:38:39;33.15;;;23.38;;
30020;SDS011;16861;52.294;7.760;2023-05-07T05:41:06;32.70;;;24.73;;
30020;SDS011;16861;52.294;7.760;2023-05-07T05:43:32;34.10;;;24.27;;
30020;SDS011;16861;52.294;7.760;2023-05-07T05:45:59;31.80;;;24.73;;
30020;SDS011;16861;52.294;7.760;2023-05-07T05:48:26;34.30;;;23.65;;
30020;SDS011;16861;52.294;7.760;2023-05-07T05:50:54;31.27;;;23.58;;
30020;SDS011;16861;52.294;7.760;2023-05-07T05:53:21;30.63;;;23.25;;
30020;SDS011;16861;52.294;7.760;2023-05-07T05:55:47;31.77;;;22.95;;
30020;SDS011;16861;52.294;7.760;2023-05-07T05:58:14;29.63;;;22.65;;
30020;SDS011;16861;52.294;7.760;2023-05-07T06:00:41;30.90;;;22.63;;
30020;SDS011;16861;52.294;7.760;2023-05-07T06:03:07;30.08;;;22.05;;
30020;SDS011;16861;52.294;7.760;2023-05-07T06:05:34;29.20;;;22.50;;
30020;SDS011;16861;52.294;7.760;2023-05-07T06:08:01;36.03;;;23.27;;
30020;SDS011;16861;52.294;7.760;2023-05-07T06:10:27;29.63;;;22.55;;
30020;SDS011;16861;52.294;7.760;2023-05-07T06:12:54;28.50;;;22.38;;
30020;SDS011;16861;52.294;7.760;2023-05-07T06:15:20;31.77;;;23.85;;
30020;SDS011;16861;52.294;7.760;2023-05-07T06:17:47;29.70;;;21.67;;
30020;SDS011;16861;52.294;7.760;2023-05-07T06:20:15;28.73;;;22.10;;
30020;SDS011;16861;52.294;7.760;2023-05-07T06:22:41;30.23;;;22.05;;
30020;SDS011;16861;52.294;7.760;2023-05-07T06:25:08;31.55;;;22.77;;
30020;SDS011;16861;52.294;7.760;2023-05-07T06:27:35;31.17;;;21.95;;
30020;SDS011;16861;52.294;7.760;2023-05-07T06:30:01;29.67;;;22.00;;
30020;SDS011;16861;52.294;7.760;2023-05-07T06:32:31;32.47;;;21.80;;
30020;SDS011;16861;52.294;7.760;2023-05-07T06:34:58;28.58;;;22.00;;
30020;SDS011;16861;52.294;7.760;2023-05-07T06:37:24;29.40;;;21.40;;
30020;SDS011;16861;52.294;7.760;2023-05-07T06:39:51;29.40;;;21.45;;
30020;SDS011;16861;52.294;7.760;2023-05-07T06:42:18;30.55;;;22.10;;
30020;SDS011;16861;52.294;7.760;2023-05-07T06:44:45;30.63;;;21.13;;
30020;SDS011;16861;52.294;7.760;2023-05-07T06:47:11;27.02;;;20.90;;
30020;SDS011;16861;52.294;7.760;2023-05-07T06:49:41;29.65;;;21.70;;
30020;SDS011;16861;52.294;7.760;2023-05-07T06:52:07;30.17;;;21.45;;
30020;SDS011;16861;52.294;7.760;2023-05-07T06:54:34;29.50;;;21.58;;
30020;SDS011;16861;52.294;7.760;2023-05-07T06:57:01;27.20;;;20.65;;
30020;SDS011;16861;52.294;7.760;2023-05-07T06:59:27;28.38;;;20.13;;
30020;SDS011;16861;52.294;7.760;2023-05-07T07:01:54;30.35;;;20.73;;
30020;SDS011;16861;52.294;7.760;2023-05-07T07:04:21;26.92;;;19.90;;
30020;SDS011;16861;52.294;7.760;2023-05-07T07:06:49;25.63;;;20.00;;
30020;SDS011;16861;52.294;7.760;2023-05-07T07:09:15;25.23;;;18.92;;
30020;SDS011;16861;52.294;7.760;2023-05-07T07:11:43;27.92;;;18.58;;
30020;SDS011;16861;52.294;7.760;2023-05-07T07:14:09;24.98;;;19.13;;
30020;SDS011;16861;52.294;7.760;2023-05-07T07:16:36;27.75;;;19.70;;
30020;SDS011;16861;52.294;7.760;2023-05-07T07:19:02;28.02;;;19.00;;
30020;SDS011;16861;52.294;7.760;2023-05-07T07:21:29;23.95;;;18.63;;
30020;SDS011;16861;52.294;7.760;2023-05-07T07:23:56;25.92;;;18.63;;
30020;SDS011;16861;52.294;7.760;2023-05-07T07:26:23;24.10;;;18.70;;
30020;SDS011;16861;52.294;7.760;2023-05-07T07:28:49;24.30;;;18.55;;
30020;SDS011;16861;52.294;7.760;2023-05-07T07:31:16;24.20;;;18.50;;
30020;SDS011;16861;52.294;7.760;2023-05-07T07:33:42;23.13;;;18.45;;
30020;SDS011;16861;52.294;7.760;2023-05-07T07:36:09;24.73;;;17.95;;
30020;SDS011;16861;52.294;7.760;2023-05-07T07:38:35;23.10;;;17.23;;
30020;SDS011;16861;52.294;7.760;2023-05-07T07:41:02;24.23;;;17.67;;
30020;SDS011;16861;52.294;7.760;2023-05-07T07:43:29;23.38;;;18.58;;
30020;SDS011;16861;52.294;7.760;2023-05-07T07:45:55;22.45;;;17.48;;
30020;SDS011;16861;52.294;7.760;2023-05-07T07:48:22;23.30;;;17.60;;
30020;SDS011;16861;52.294;7.760;2023-05-07T07:50:49;23.05;;;16.95;;
30020;SDS011;16861;52.294;7.760;2023-05-07T07:53:17;22.05;;;17.30;;
30020;SDS011;16861;52.294;7.760;2023-05-07T07:55:44;23.90;;;17.65;;
30020;SDS011;16861;52.294;7.760;2023-05-07T07:58:10;21.83;;;17.35;;
30020;SDS011;16861;52.294;7.760;2023-05-07T08:00:37;24.20;;;17.00;;
30020;SDS011;16861;52.294;7.760;2023-05-07T08:03:03;24.02;;;18.48;;
30020;SDS011;16861;52.294;7.760;2023-05-07T08:05:31;24.08;;;17.35;;
30020;SDS011;16861;52.294;7.760;2023-05-07T08:07:58;22.15;;;16.80;;
30020;SDS011;16861;52.294;7.760;2023-05-07T08:10:24;22.52;;;17.30;;
30020;SDS011;16861;52.294;7.760;2023-05-07T08:12:51;23.02;;;17.33;;
30020;SDS011;16861;52.294;7.760;2023-05-07T08:15:18;21.85;;;16.88;;
30020;SDS011;16861;52.294;7.760;2023-05-07T08:17:44;22.77;;;15.63;;
30020;SDS011;16861;52.294;7.760;2023-05-07T08:20:11;22.48;;;16.85;;
30020;SDS011;16861;52.294;7.760;2023-05-07T08:22:38;19.70;;;15.80;;
30020;SDS011;16861;52.294;7.760;2023-05-07T08:25:05;19.40;;;16.00;;
30020;SDS011;16861;52.294;7.760;2023-05-07T08:27:31;21.80;;;16.13;;
30020;SDS011;16861;52.294;7.760;2023-05-07T08:29:58;21.23;;;16.35;;
30020;SDS011;16861;52.294;7.760;2023-05-07T08:32:24;22.10;;;16.52;;
30020;SDS011;16861;52.294;7.760;2023-05-07T08:34:51;22.50;;;16.50;;
30020;SDS011;16861;52.294;7.760;2023-05-07T08:37:17;20.13;;;15.88;;
30020;SDS011;16861;52.294;7.760;2023-05-07T08:39:44;18.08;;;14.57;;
30020;SDS011;16861;52.294;7.760;2023-05-07T08:42:11;19.70;;;16.10;;
30020;SDS011;16861;52.294;7.760;2023-05-07T08:44:40;21.15;;;15.48;;
30020;SDS011;16861;52.294;7.760;2023-05-07T08:47:11;18.08;;;15.07;;
30020;SDS011;16861;52.294;7.760;2023-05-07T08:49:38;19.63;;;15.30;;
30020;SDS011;16861;52.294;7.760;2023-05-07T08:52:05;19.25;;;14.57;;
30020;SDS011;16861;52.294;7.760;2023-05-07T08:54:36;17.13;;;14.20;;
30020;SDS011;16861;52.294;7.760;2023-05-07T08:57:03;19.27;;;14.82;;
30020;SDS011;16861;52.294;7.760;2023-05-07T08:59:29;20.20;;;14.93;;
30020;SDS011;16861;52.294;7.760;2023-05-07T09:01:56;20.50;;;15.13;;
30020;SDS011;16861;52.294;7.760;2023-05-07T09:04:23;22.15;;;14.57;;
30020;SDS011;16861;52.294;7.760;2023-05-07T09:06:49;18.85;;;14.85;;
30020;SDS011;16861;52.294;7.760;2023-05-07T09:09:18;20.05;;;14.93;;
30020;SDS011;16861;52.294;7.760;2023-05-07T09:11:47;16.40;;;13.68;;
30020;SDS011;16861;52.294;7.760;2023-05-07T09:14:13;19.60;;;15.38;;
30020;SDS011;16861;52.294;7.760;2023-05-07T09:16:40;18.13;;;14.27;;
30020;SDS011;16861;52.294;7.760;2023-05-07T09:19:06;19.38;;;14.65;;
30020;SDS011;16861;52.294;7.760;2023-05-07T09:21:33;17.80;;;13.57;;
30020;SDS011;16861;52.294;7.760;2023-05-07T09:23:59;17.38;;;14.45;;
30020;SDS011;16861;52.294;7.760;2023-05-07T09:26:26;17.73;;;13.75;;
30020;SDS011;16861;52.294;7.760;2023-05-07T09:28:54;17.83;;;14.48;;
30020;SDS011;16861;52.294;7.760;2023-05-07T09:31:21;17.77;;;14.45;;
30020;SDS011;16861;52.294;7.760;2023-05-07T09:33:49;19.38;;;13.48;;
30020;SDS011;16861;52.294;7.760;2023-05-07T09:36:16;18.38;;;13.13;;
30020;SDS011;16861;52.294;7.760;2023-05-07T09:38:44;15.00;;;12.98;;
30020;SDS011;16861;52.294;7.760;2023-05-07T09:41:12;17.70;;;13.40;;
30020;SDS011;16861;52.294;7.760;2023-05-07T09:43:39;17.85;;;13.20;;
30020;SDS011;16861;52.294;7.760;2023-05-07T09:48:41;19.52;;;13.60;;
30020;SDS011;16861;52.294;7.760;2023-05-07T09:51:11;19.35;;;14.60;;
30020;SDS011;16861;52.294;7.760;2023-05-07T09:53:44;16.48;;;13.48;;
30020;SDS011;16861;52.294;7.760;2023-05-07T09:56:13;14.70;;;12.27;;
30020;SDS011;16861;52.294;7.760;2023-05-07T09:58:41;15.95;;;11.85;;
30020;SDS011;16861;52.294;7.760;2023-05-07T10:01:10;15.88;;;12.65;;
30020;SDS011;16861;52.294;7.760;2023-05-07T10:03:39;14.00;;;12.50;;
30020;SDS011;16861;52.294;7.760;2023-05-07T10:06:10;14.57;;;12.83;;
30020;SDS011;16861;52.294;7.760;2023-05-07T10:08:39;13.82;;;11.75;;
30020;SDS011;16861;52.294;7.760;2023-05-07T10:11:06;14.00;;;11.93;;
30020;SDS011;16861;52.294;7.760;2023-05-07T10:13:33;16.58;;;12.65;;
30020;SDS011;16861;52.294;7.760;2023-05-07T10:16:03;14.75;;;11.35;;
30020;SDS011;16861;52.294;7.760;2023-05-07T10:18:31;15.00;;;11.88;;
30020;SDS011;16861;52.294;7.760;2023-05-07T10:21:04;14.00;;;11.75;;
30020;SDS011;16861;52.294;7.760;2023-05-07T10:23:41;13.52;;;11.75;;
30020;SDS011;16861;52.294;7.760;2023-05-07T10:26:11;13.93;;;11.05;;
30020;SDS011;16861;52.294;7.760;2023-05-07T10:28:41;14.20;;;11.05;;
30020;SDS011;16861;52.294;7.760;2023-05-07T10:34:00;13.80;;;11.27;;
30020;SDS011;16861;52.294;7.760;2023-05-07T10:36:33;14.68;;;11.30;;
30020;SDS011;16861;52.294;7.760;2023-05-07T10:39:03;13.52;;;11.48;;
30020;SDS011;16861;52.294;7.760;2023-05-07T10:41:31;13.57;;;11.35;;
30020;SDS011;16861;52.294;7.760;2023-05-07T10:43:58;12.20;;;10.40;;
30020;SDS011;16861;52.294;7.760;2023-05-07T10:46:27;11.32;;;9.93;;
30020;SDS011;16861;52.294;7.760;2023-05-07T10:51:27;10.65;;;9.48;;
30020;SDS011;16861;52.294;7.760;2023-05-07T10:56:39;11.02;;;9.80;;
30020;SDS011;16861;52.294;7.760;2023-05-07T11:01:54;11.57;;;10.02;;
30020;SDS011;16861;52.294;7.760;2023-05-07T11:04:22;10.77;;;9.38;;
30020;SDS011;16861;52.294;7.760;2023-05-07T11:07:27;10.93;;;8.40;;
30020;SDS011;16861;52.294;7.760;2023-05-07T11:15:10;9.80;;;8.82;;
30020;SDS011;16861;52.294;7.760;2023-05-07T11:17:59;11.07;;;8.82;;
30020;SDS011;16861;52.294;7.760;2023-05-07T11:26:02;9.30;;;8.32;;
30020;SDS011;16861;52.294;7.760;2023-05-07T11:28:36;9.68;;;8.50;;
30020;SDS011;16861;52.294;7.760;2023-05-07T11:31:04;8.48;;;7.63;;
30020;SDS011;16861;52.294;7.760;2023-05-07T11:33:31;9.80;;;8.20;;
30020;SDS011;16861;52.294;7.760;2023-05-07T11:35:57;8.27;;;7.47;;
30020;SDS011;16861;52.294;7.760;2023-05-07T11:38:26;9.52;;;8.63;;
30020;SDS011;16861;52.294;7.760;2023-05-07T11:40:53;8.68;;;7.78;;
30020;SDS011;16861;52.294;7.760;2023-05-07T11:43:23;7.57;;;6.88;;
30020;SDS011;16861;52.294;7.760;2023-05-07T11:45:50;9.07;;;8.15;;
30020;SDS011;16861;52.294;7.760;2023-05-07T11:48:16;11.95;;;7.93;;
30020;SDS011;16861;52.294;7.760;2023-05-07T11:51:17;9.52;;;6.82;;
30020;SDS011;16861;52.294;7.760;2023-05-07T11:53:39;7.45;;;6.63;;
30020;SDS011;16861;52.294;7.760;2023-05-07T11:56:11;7.53;;;6.72;;
30020;SDS011;16861;52.294;7.760;2023-05-07T11:58:39;7.63;;;6.82;;
30020;SDS011;16861;52.294;7.760;2023-05-07T12:01:07;10.27;;;7.43;;
30020;SDS011;16861;52.294;7.760;2023-05-07T12:03:39;7.60;;;6.90;;
30020;SDS011;16861;52.294;7.760;2023-05-07T12:06:12;7.35;;;6.65;;
30020;SDS011;16861;52.294;7.760;2023-05-07T12:08:41;6.45;;;5.85;;
30020;SDS011;16861;52.294;7.760;2023-05-07T12:11:13;6.90;;;6.20;;
30020;SDS011;16861;52.294;7.760;2023-05-07T12:13:43;6.75;;;6.10;;
30020;SDS011;16861;52.294;7.760;2023-05-07T12:16:10;8.05;;;6.70;;
30020;SDS011;16861;52.294;7.760;2023-05-07T12:18:37;7.60;;;6.82;;
30020;SDS011;16861;52.294;7.760;2023-05-07T12:21:05;6.00;;;5.50;;
30020;SDS011;16861;52.294;7.760;2023-05-07T12:23:33;6.97;;;5.85;;
30020;SDS011;16861;52.294;7.760;2023-05-07T12:26:01;6.40;;;5.80;;
30020;SDS011;16861;52.294;7.760;2023-05-07T12:28:36;8.43;;;5.45;;
30020;SDS011;16861;52.294;7.760;2023-05-07T12:31:04;6.30;;;5.50;;
30020;SDS011;16861;52.294;7.760;2023-05-07T12:33:31;5.72;;;5.22;;
30020;SDS011;16861;52.294;7.760;2023-05-07T12:36:02;5.55;;;5.00;;
30020;SDS011;16861;52.294;7.760;2023-05-07T12:38:33;5.30;;;4.85;;
30020;SDS011;16861;52.294;7.760;2023-05-07T12:41:01;6.07;;;5.47;;
30020;SDS011;16861;52.294;7.760;2023-05-07T12:43:28;6.25;;;5.65;;
30020;SDS011;16861;52.294;7.760;2023-05-07T12:45:57;6.07;;;5.47;;
30020;SDS011;16861;52.294;7.760;2023-05-07T12:48:25;6.03;;;5.43;;
30020;SDS011;16861;52.294;7.760;2023-05-07T12:50:56;5.53;;;5.03;;
30020;SDS011;16861;52.294;7.760;2023-05-07T12:53:25;6.75;;;6.03;;
30020;SDS011;16861;52.294;7.760;2023-05-07T12:55:53;7.72;;;5.68;;
30020;SDS011;16861;52.294;7.760;2023-05-07T12:58:28;7.30;;;5.72;;
30020;SDS011;16861;52.294;7.760;2023-05-07T13:00:59;7.00;;;5.50;;
30020;SDS011;16861;52.294;7.760;2023-05-07T13:03:31;6.82;;;5.57;;
30020;SDS011;16861;52.294;7.760;2023-05-07T13:06:00;6.63;;;5.90;;
30020;SDS011;16861;52.294;7.760;2023-05-07T13:08:32;6.10;;;5.50;;
30020;SDS011;16861;52.294;7.760;2023-05-07T13:11:04;5.85;;;5.25;;
30020;SDS011;16861;52.294;7.760;2023-05-07T13:13:31;6.05;;;5.45;;
30020;SDS011;16861;52.294;7.760;2023-05-07T13:15:59;6.70;;;5.18;;
30020;SDS011;16861;52.294;7.760;2023-05-07T13:18:27;5.88;;;5.32;;
30020;SDS011;16861;52.294;7.760;2023-05-07T13:20:55;6.25;;;5.40;;
30020;SDS011;16861;52.294;7.760;2023-05-07T13:23:22;5.75;;;5.25;;
30020;SDS011;16861;52.294;7.760;2023-05-07T13:25:49;5.97;;;5.47;;
30020;SDS011;16861;52.294;7.760;2023-05-07T13:28:16;5.47;;;4.80;;
30020;SDS011;16861;52.294;7.760;2023-05-07T13:30:43;5.10;;;4.57;;
30020;SDS011;16861;52.294;7.760;2023-05-07T13:33:10;5.47;;;4.97;;
30020;SDS011;16861;52.294;7.760;2023-05-07T13:35:36;4.55;;;4.15;;
30020;SDS011;16861;52.294;7.760;2023-05-07T13:38:03;4.88;;;4.35;;
30020;SDS011;16861;52.294;7.760;2023-05-07T13:40:30;4.82;;;4.35;;
30020;SDS011;16861;52.294;7.760;2023-05-07T13:42:59;4.65;;;4.25;;
30020;SDS011;16861;52.294;7.760;2023-05-07T13:45:28;4.70;;;4.20;;
30020;SDS011;16861;52.294;7.760;2023-05-07T13:47:56;4.82;;;4.28;;
30020;SDS011;16861;52.294;7.760;2023-05-07T13:50:22;4.72;;;4.32;;
30020;SDS011;16861;52.294;7.760;2023-05-07T13:52:49;4.80;;;4.30;;
30020;SDS011;16861;52.294;7.760;2023-05-07T13:55:18;6.15;;;4.18;;
30020;SDS011;16861;52.294;7.760;2023-05-07T13:57:46;4.07;;;3.70;;
30020;SDS011;16861;52.294;7.760;2023-05-07T14:00:13;4.35;;;3.95;;
30020;SDS011;16861;52.294;7.760;2023-05-07T14:02:40;3.53;;;3.22;;
30020;SDS011;16861;52.294;7.760;2023-05-07T14:05:07;4.63;;;4.20;;
30020;SDS011;16861;52.294;7.760;2023-05-07T14:07:35;4.20;;;3.80;;
30020;SDS011;16861;52.294;7.760;2023-05-07T14:10:02;4.45;;;3.40;;
30020;SDS011;16861;52.294;7.760;2023-05-07T14:12:29;4.13;;;3.17;;
30020;SDS011;16861;52.294;7.760;2023-05-07T14:14:55;4.45;;;3.50;;
30020;SDS011;16861;52.294;7.760;2023-05-07T14:17:22;4.40;;;3.60;;
30020;SDS011;16861;52.294;7.760;2023-05-07T14:19:51;3.70;;;3.38;;
30020;SDS011;16861;52.294;7.760;2023-05-07T14:22:20;4.47;;;3.78;;
30020;SDS011;16861;52.294;7.760;2023-05-07T14:24:49;3.60;;;3.30;;
30020;SDS011;16861;52.294;7.760;2023-05-07T14:27:31;3.65;;;3.15;;
30020;SDS011;16861;52.294;7.760;2023-05-07T14:29:58;3.90;;;3.50;;
30020;SDS011;16861;52.294;7.760;2023-05-07T14:32:24;3.88;;;3.50;;
30020;SDS011;16861;52.294;7.760;2023-05-07T14:34:51;3.60;;;3.30;;
30020;SDS011;16861;52.294;7.760;2023-05-07T14:37:18;3.28;;;3.03;;
30020;SDS011;16861;52.294;7.760;2023-05-07T14:39:46;3.20;;;3.00;;
30020;SDS011;16861;52.294;7.760;2023-05-07T14:42:16;3.28;;;2.97;;
30020;SDS011;16861;52.294;7.760;2023-05-07T14:44:43;2.97;;;2.65;;
30020;SDS011;16861;52.294;7.760;2023-05-07T14:47:11;3.35;;;3.05;;
30020;SDS011;16861;52.294;7.760;2023-05-07T14:49:37;4.00;;;3.65;;
30020;SDS011;16861;52.294;7.760;2023-05-07T14:52:04;8.57;;;3.17;;
30020;SDS011;16861;52.294;7.760;2023-05-07T14:54:36;3.10;;;2.90;;